createdAt,value
2023-04-15T00:01:19.143Z,16.47
2023-04-15T00:03:46.721Z,16.47
2023-04-15T00:06:13.889Z,16.46
2023-04-15T00:08:40.607Z,16.44
2023-04-15T00:11:07.374Z,16.44
2023-04-15T00:13:36.724Z,16.44
2023-04-15T00:16:03.491Z,16.45
2023-04-15T00:18:30.645Z,16.44
2023-04-15T00:20:57.425Z,16.45
2023-04-15T00:23:24.156Z,16.44
2023-04-15T00:25:51.320Z,16.46
2023-04-15T00:28:18.583Z,16.44
2023-04-15T00:30:46.076Z,16.43
2023-04-15T00:33:13.785Z,16.42
2023-04-15T00:35:40.779Z,16.43
2023-04-15T00:38:10.658Z,16.42
2023-04-15T00:40:38.072Z,16.43
2023-04-15T00:43:04.781Z,16.40
2023-04-15T00:45:32.129Z,16.38
2023-04-15T00:47:59.426Z,16.36
2023-04-15T00:50:26.271Z,16.36
2023-04-15T00:52:53.025Z,16.36
2023-04-15T00:55:19.844Z,16.35
2023-04-15T00:57:47.029Z,16.36
2023-04-15T01:00:14.183Z,16.35
2023-04-15T01:02:41.336Z,16.36
2023-04-15T01:05:08.761Z,16.36
2023-04-15T01:07:35.568Z,16.35
2023-04-15T01:10:04.160Z,16.34
2023-04-15T01:12:33.345Z,16.33
2023-04-15T01:15:00.494Z,16.33
2023-04-15T01:17:27.369Z,16.34
2023-04-15T01:19:56.784Z,16.33
2023-04-15T01:22:24.524Z,16.32
2023-04-15T01:25:12.608Z,16.32
2023-04-15T01:27:41.518Z,16.31
2023-04-15T01:30:09.225Z,16.30
2023-04-15T01:32:36.542Z,16.30
2023-04-15T01:35:03.422Z,16.31
2023-04-15T01:37:31.019Z,16.30
2023-04-15T01:39:58.307Z,16.30
2023-04-15T01:42:25.070Z,16.30
2023-04-15T01:44:52.143Z,16.30
2023-04-15T01:47:18.911Z,16.29
2023-04-15T01:49:45.753Z,16.27
2023-04-15T01:52:12.472Z,16.26
2023-04-15T01:54:39.217Z,16.29
2023-04-15T01:57:05.941Z,16.28
2023-04-15T01:59:32.658Z,16.28
2023-04-15T02:02:00.220Z,16.27
2023-04-15T02:04:28.181Z,16.27
2023-04-15T02:06:54.936Z,16.26
2023-04-15T02:09:21.713Z,16.26
2023-04-15T02:11:48.632Z,16.27
2023-04-15T02:14:15.365Z,16.25
2023-04-15T02:16:42.097Z,16.24
2023-04-15T02:19:09.133Z,16.21
2023-04-15T02:21:36.078Z,16.21
2023-04-15T02:24:02.821Z,16.22
2023-04-15T02:26:32.367Z,16.21
2023-04-15T02:28:59.961Z,16.24
2023-04-15T02:31:27.081Z,16.20
2023-04-15T02:33:53.776Z,16.19
2023-04-15T02:36:21.597Z,16.21
2023-04-15T02:38:48.391Z,16.21
2023-04-15T02:41:15.188Z,16.20
2023-04-15T02:43:42.072Z,16.19
2023-04-15T02:46:08.855Z,16.19
2023-04-15T02:48:36.290Z,16.16
2023-04-15T02:51:20.558Z,16.16
2023-04-15T02:53:48.791Z,16.16
2023-04-15T02:56:18.585Z,16.12
2023-04-15T02:58:45.959Z,16.11
2023-04-15T03:01:12.812Z,16.11
2023-04-15T03:03:39.678Z,16.07
2023-04-15T03:06:06.828Z,16.05
2023-04-15T03:08:33.529Z,16.05
2023-04-15T03:11:01.108Z,16.02
2023-04-15T03:13:27.897Z,16.00
2023-04-15T03:15:54.691Z,16.02
2023-04-15T03:18:21.867Z,16.04
2023-04-15T03:20:48.703Z,16.03
2023-04-15T03:23:15.597Z,16.03
2023-04-15T03:25:42.465Z,15.96
2023-04-15T03:28:09.284Z,15.98
2023-04-15T03:30:36.198Z,15.97
2023-04-15T03:33:03.022Z,15.98
2023-04-15T03:35:29.787Z,15.99
2023-04-15T03:37:56.538Z,15.98
2023-04-15T03:40:23.248Z,15.98
2023-04-15T03:42:50.008Z,15.97
2023-04-15T03:45:16.939Z,15.87
2023-04-15T03:47:43.913Z,15.86
2023-04-15T03:50:11.204Z,15.85
2023-04-15T03:52:38.134Z,15.83
2023-04-15T03:55:05.438Z,15.86
2023-04-15T03:57:32.191Z,15.88
2023-04-15T03:59:58.885Z,15.83
2023-04-15T04:02:26.308Z,15.84
2023-04-15T04:04:53.251Z,15.82
2023-04-15T04:07:20.028Z,15.85
2023-04-15T04:09:47.441Z,15.81
2023-04-15T04:12:14.686Z,15.82
2023-04-15T04:14:41.416Z,15.83
2023-04-15T04:17:08.413Z,15.83
2023-04-15T04:19:35.868Z,15.82
2023-04-15T04:22:02.673Z,15.83
2023-04-15T04:24:29.383Z,15.80
2023-04-15T04:26:57.750Z,15.80
2023-04-15T04:29:24.474Z,15.83
2023-04-15T04:31:51.437Z,15.83
2023-04-15T04:34:18.266Z,15.81
2023-04-15T04:36:45.056Z,15.81
2023-04-15T04:39:11.775Z,15.81
2023-04-15T04:41:38.512Z,15.84
2023-04-15T04:44:05.278Z,15.86
2023-04-15T04:46:31.970Z,15.84
2023-04-15T04:48:58.669Z,15.82
2023-04-15T04:51:26.412Z,15.81
2023-04-15T04:53:53.213Z,15.80
2023-04-15T04:56:19.970Z,15.77
2023-04-15T04:58:46.953Z,15.75
2023-04-15T05:01:13.794Z,15.77
2023-04-15T05:03:40.839Z,15.77
2023-04-15T05:06:08.995Z,15.79
2023-04-15T05:08:35.759Z,15.78
2023-04-15T05:11:03.548Z,15.79
2023-04-15T05:13:30.413Z,15.77
2023-04-15T05:15:57.229Z,15.77
2023-04-15T05:18:24.081Z,15.77
2023-04-15T05:20:50.993Z,15.76
2023-04-15T05:23:17.962Z,15.75
2023-04-15T05:25:44.720Z,15.76
2023-04-15T05:28:11.678Z,15.77
2023-04-15T05:30:38.904Z,15.78
2023-04-15T05:33:05.698Z,15.75
2023-04-15T05:35:32.420Z,15.72
2023-04-15T05:37:59.136Z,15.73
2023-04-15T05:40:25.859Z,15.75
2023-04-15T05:42:53.014Z,15.71
2023-04-15T05:45:19.778Z,15.71
2023-04-15T05:47:47.112Z,15.71
2023-04-15T05:50:13.895Z,15.71
2023-04-15T05:52:40.810Z,15.69
2023-04-15T05:55:07.804Z,15.66
2023-04-15T05:57:34.498Z,15.68
2023-04-15T06:00:01.165Z,15.68
2023-04-15T06:02:28.207Z,15.71
2023-04-15T06:04:55.033Z,15.73
2023-04-15T06:07:21.767Z,15.72
2023-04-15T06:09:49.307Z,15.74
2023-04-15T06:12:17.222Z,15.77
2023-04-15T06:14:43.916Z,15.75
2023-04-15T06:17:10.792Z,15.75
2023-04-15T06:19:37.597Z,15.76
2023-04-15T06:22:04.481Z,15.81
2023-04-15T06:24:31.883Z,15.78
2023-04-15T06:26:58.591Z,15.80
2023-04-15T06:29:25.519Z,15.81
2023-04-15T06:31:52.387Z,15.82
2023-04-15T06:34:19.190Z,15.83
2023-04-15T06:36:46.126Z,15.83
2023-04-15T06:39:13.103Z,15.84
2023-04-15T06:41:40.067Z,15.87
2023-04-15T06:44:07.270Z,15.87
2023-04-15T06:46:34.000Z,15.89
2023-04-15T06:49:00.862Z,15.90
2023-04-15T06:51:27.927Z,15.92
2023-04-15T06:53:54.948Z,15.90
2023-04-15T06:56:22.140Z,15.92
2023-04-15T06:58:49.026Z,15.90
2023-04-15T07:01:15.839Z,15.91
2023-04-15T07:03:43.041Z,15.91
2023-04-15T07:06:10.363Z,15.90
2023-04-15T07:08:37.251Z,15.90
2023-04-15T07:11:04.020Z,15.90
2023-04-15T07:13:32.231Z,15.91
2023-04-15T07:15:59.569Z,15.93
2023-04-15T07:18:26.386Z,15.92
2023-04-15T07:20:53.199Z,15.90
2023-04-15T07:23:19.962Z,15.93
2023-04-15T07:25:47.621Z,15.92
2023-04-15T07:28:14.386Z,15.93
2023-04-15T07:30:41.775Z,15.94
2023-04-15T07:33:08.641Z,15.93
2023-04-15T07:35:35.411Z,15.91
2023-04-15T07:38:02.237Z,15.92
2023-04-15T07:40:29.310Z,15.93
2023-04-15T07:42:58.916Z,15.92
2023-04-15T07:45:25.735Z,15.90
2023-04-15T07:47:52.613Z,15.91
2023-04-15T07:50:19.977Z,15.92
2023-04-15T07:52:46.771Z,15.92
2023-04-15T07:55:13.591Z,15.94
2023-04-15T07:57:40.345Z,15.95
2023-04-15T08:00:08.045Z,15.95
2023-04-15T08:02:36.948Z,15.95
2023-04-15T08:05:05.509Z,15.95
2023-04-15T08:07:32.800Z,15.94
2023-04-15T08:09:59.545Z,15.97
2023-04-15T08:12:26.493Z,15.96
2023-04-15T08:14:53.572Z,15.96
2023-04-15T08:17:20.868Z,15.96
2023-04-15T08:19:48.690Z,15.94
2023-04-15T08:22:18.532Z,15.94
2023-04-15T08:25:55.533Z,15.97
2023-04-15T08:28:20.719Z,15.97
2023-04-15T08:30:47.537Z,15.99
2023-04-15T08:33:14.278Z,15.98
2023-04-15T08:35:41.056Z,16.00
2023-04-15T08:38:07.921Z,16.01
2023-04-15T08:40:41.878Z,16.02
2023-04-15T08:43:12.910Z,16.04
2023-04-15T08:45:40.520Z,16.04
2023-04-15T08:48:10.018Z,16.03
2023-04-15T08:50:36.878Z,16.06
2023-04-15T08:53:04.018Z,16.10
2023-04-15T08:55:36.480Z,16.14
2023-04-15T08:58:03.541Z,16.21
2023-04-15T09:00:31.300Z,16.22
2023-04-15T09:02:59.603Z,16.29
2023-04-15T09:05:26.796Z,16.31
2023-04-15T09:07:53.732Z,16.31
2023-04-15T09:10:20.467Z,16.33
2023-04-15T09:12:47.407Z,16.34
2023-04-15T09:15:15.746Z,16.30
2023-04-15T09:17:44.475Z,16.31
2023-04-15T09:20:16.116Z,16.29
2023-04-15T09:22:47.274Z,16.36
2023-04-15T09:25:22.868Z,16.37
2023-04-15T09:27:50.761Z,16.39
2023-04-15T09:30:17.816Z,16.42
2023-04-15T09:33:08.980Z,16.44
2023-04-15T09:35:36.959Z,16.43
2023-04-15T09:38:09.017Z,16.42
2023-04-15T09:40:36.157Z,16.44
2023-04-15T09:43:05.462Z,16.42
2023-04-15T09:45:34.360Z,16.42
2023-04-15T09:48:17.570Z,16.40
2023-04-15T09:50:45.196Z,16.39
2023-04-15T09:53:12.624Z,16.38
2023-04-15T09:55:39.353Z,16.37
2023-04-15T09:58:17.650Z,16.37
2023-04-15T10:00:44.425Z,16.36
2023-04-15T10:03:12.098Z,16.38
2023-04-15T10:05:39.755Z,16.40
2023-04-15T10:08:06.908Z,16.39
2023-04-15T10:10:34.738Z,16.40
2023-04-15T10:13:02.928Z,16.39
2023-04-15T10:15:30.774Z,16.40
2023-04-15T10:18:00.706Z,16.38
2023-04-15T10:20:29.491Z,16.39
2023-04-15T10:22:57.105Z,16.39
2023-04-15T10:25:26.027Z,16.36
2023-04-15T10:27:53.429Z,16.34
2023-04-15T10:30:20.929Z,16.34
2023-04-15T10:32:48.403Z,16.35
2023-04-15T10:35:17.924Z,16.36
2023-04-15T10:37:44.661Z,16.34
2023-04-15T10:40:28.336Z,16.35
2023-04-15T10:42:56.807Z,16.38
2023-04-15T10:45:27.445Z,16.39
2023-04-15T10:48:00.501Z,16.41
2023-04-15T10:50:30.881Z,16.40
2023-04-15T10:52:57.880Z,16.41
2023-04-15T10:55:33.032Z,16.42
2023-04-15T10:58:01.693Z,16.42
2023-04-15T11:00:32.997Z,16.41
2023-04-15T11:03:07.593Z,16.41
2023-04-15T11:05:43.690Z,16.41
2023-04-15T11:08:11.328Z,16.40
2023-04-15T11:10:38.038Z,16.40
2023-04-15T11:13:11.125Z,16.39
2023-04-15T11:15:42.118Z,16.39
2023-04-15T11:18:23.210Z,16.41
2023-04-15T11:20:50.999Z,16.46
2023-04-15T11:23:19.749Z,16.48
2023-04-15T11:25:46.494Z,16.51
2023-04-15T11:28:14.231Z,16.54
2023-04-15T11:30:42.354Z,16.52
2023-04-15T11:33:12.354Z,16.51
2023-04-15T11:35:41.515Z,16.50
2023-04-15T11:38:16.849Z,16.50
2023-04-15T11:40:46.710Z,16.48
2023-04-15T11:43:16.306Z,16.47
2023-04-15T11:45:49.128Z,16.48
2023-04-15T11:48:16.120Z,16.47
2023-04-15T11:50:42.970Z,16.48
2023-04-15T11:53:12.403Z,16.53
2023-04-15T11:55:43.537Z,16.56
2023-04-15T11:58:20.733Z,16.57
2023-04-15T12:01:01.160Z,16.57
2023-04-15T12:03:36.603Z,16.56
2023-04-15T12:06:22.723Z,16.57
2023-04-15T12:08:55.805Z,16.59
2023-04-15T12:11:31.602Z,16.59
2023-04-15T12:14:03.320Z,16.61
2023-04-15T12:16:30.786Z,16.59
2023-04-15T12:18:59.647Z,16.60
2023-04-15T12:21:29.369Z,16.60
2023-04-15T12:23:58.114Z,16.58
2023-04-15T12:26:33.701Z,16.59
2023-04-15T12:29:11.784Z,16.58
2023-04-15T12:31:48.784Z,16.58
2023-04-15T12:34:16.086Z,16.57
2023-04-15T12:36:43.728Z,16.57
2023-04-15T12:39:10.711Z,16.57
2023-04-15T12:41:37.491Z,16.56
2023-04-15T12:44:04.563Z,16.54
2023-04-15T12:46:31.609Z,16.55
2023-04-15T12:48:58.695Z,16.53
2023-04-15T12:51:27.989Z,16.53
2023-04-15T12:53:54.814Z,16.53
2023-04-15T12:56:21.545Z,16.55
2023-04-15T12:58:48.269Z,16.54
2023-04-15T13:01:15.228Z,16.54
2023-04-15T13:03:42.255Z,16.51
2023-04-15T13:06:09.108Z,16.50
2023-04-15T13:08:38.544Z,16.52
2023-04-15T13:11:07.518Z,16.54
2023-04-15T13:13:34.447Z,16.57
2023-04-15T13:16:01.185Z,16.60
2023-04-15T13:18:28.095Z,16.63
2023-04-15T13:20:55.609Z,16.62
2023-04-15T13:23:22.377Z,16.59
2023-04-15T13:25:49.154Z,16.53
2023-04-15T13:28:15.944Z,16.50
2023-04-15T13:30:44.263Z,16.53
2023-04-15T13:33:11.538Z,16.54
2023-04-15T13:35:38.456Z,16.57
2023-04-15T13:38:05.156Z,16.61
2023-04-15T13:40:31.874Z,16.62
2023-04-15T13:42:58.854Z,16.62
2023-04-15T13:45:26.124Z,16.61
2023-04-15T13:47:53.403Z,16.60
2023-04-15T13:50:20.240Z,16.55
2023-04-15T13:52:47.657Z,16.53
2023-04-15T13:55:20.409Z,16.50
2023-04-15T13:57:48.114Z,16.48
2023-04-15T14:00:15.768Z,16.47
2023-04-15T14:02:42.699Z,16.49
2023-04-15T14:05:10.660Z,16.48
2023-04-15T14:07:37.574Z,16.49
2023-04-15T14:10:04.886Z,16.49
2023-04-15T14:12:32.211Z,16.48
2023-04-15T14:14:58.970Z,16.49
2023-04-15T14:17:25.695Z,16.48
2023-04-15T14:19:52.429Z,16.45
2023-04-15T14:22:19.237Z,16.46
2023-04-15T14:24:46.433Z,16.43
2023-04-15T14:27:13.221Z,16.43
2023-04-15T14:29:39.977Z,16.43
2023-04-15T14:32:12.269Z,16.43
2023-04-15T14:34:40.271Z,16.42
2023-04-15T14:37:07.315Z,16.42
2023-04-15T14:39:34.161Z,16.44
2023-04-15T14:42:01.578Z,16.42
2023-04-15T14:44:28.826Z,16.43
2023-04-15T14:46:56.259Z,16.42
2023-04-15T14:49:23.893Z,16.41
2023-04-15T14:51:50.885Z,16.42
2023-04-15T14:54:17.659Z,16.40
2023-04-15T14:56:44.430Z,16.39
2023-04-15T14:59:11.154Z,16.38
2023-04-15T15:01:38.079Z,16.40
2023-04-15T15:04:05.112Z,16.39
2023-04-15T15:06:31.942Z,16.40
2023-04-15T15:08:58.713Z,16.40
2023-04-15T15:11:25.809Z,16.38
2023-04-15T15:13:52.652Z,16.39
2023-04-15T15:16:19.403Z,16.37
2023-04-15T15:18:46.422Z,16.38
2023-04-15T15:21:13.315Z,16.37
2023-04-15T15:23:39.998Z,16.36
2023-04-15T15:26:06.974Z,16.37
2023-04-15T15:28:34.726Z,16.36
2023-04-15T15:31:01.523Z,16.35
2023-04-15T15:33:30.087Z,16.35
2023-04-15T15:35:58.208Z,16.35
2023-04-15T15:38:25.091Z,16.35
2023-04-15T15:40:52.383Z,16.34
2023-04-15T15:43:19.107Z,16.35
2023-04-15T15:45:45.959Z,16.35
2023-04-15T15:48:12.909Z,16.31
2023-04-15T15:50:43.018Z,16.32
2023-04-15T15:53:11.754Z,16.32
2023-04-15T15:55:38.677Z,16.34
2023-04-15T15:58:05.450Z,16.33
2023-04-15T16:00:32.316Z,16.32
2023-04-15T16:05:28.784Z,16.33
2023-04-15T16:07:55.541Z,16.32
2023-04-15T16:10:22.275Z,16.30
2023-04-15T16:12:49.000Z,16.28
2023-04-15T16:15:15.941Z,16.28
2023-04-15T16:17:42.788Z,16.27
2023-04-15T16:20:09.898Z,16.27
2023-04-15T16:22:36.909Z,16.28
2023-04-15T16:25:03.956Z,16.28
2023-04-15T16:27:30.738Z,16.26
2023-04-15T16:29:57.584Z,16.28
2023-04-15T16:32:24.363Z,16.29
2023-04-15T16:34:52.731Z,16.28
2023-04-15T16:37:21.039Z,16.27
2023-04-15T16:39:48.123Z,16.26
2023-04-15T16:42:14.920Z,16.25
2023-04-15T16:44:41.830Z,16.27
2023-04-15T16:47:11.299Z,16.27
2023-04-15T16:49:38.503Z,16.27
2023-04-15T16:52:05.325Z,16.25
2023-04-15T16:54:33.717Z,16.27
2023-04-15T16:57:02.774Z,16.25
2023-04-15T16:59:29.506Z,16.24
2023-04-15T17:01:56.519Z,16.24
2023-04-15T17:04:23.498Z,16.24
2023-04-15T17:06:50.462Z,16.23
2023-04-15T17:09:17.476Z,16.22
2023-04-15T17:11:45.737Z,16.22
2023-04-15T17:14:12.617Z,16.23
2023-04-15T17:16:40.581Z,16.22
2023-04-15T17:19:07.303Z,16.21
2023-04-15T17:21:34.942Z,16.20
2023-04-15T17:24:01.867Z,16.19
2023-04-15T17:26:29.066Z,16.19
2023-04-15T17:28:55.748Z,16.18
2023-04-15T17:31:22.857Z,16.17
2023-04-15T17:33:55.446Z,16.18
2023-04-15T17:36:29.792Z,16.17
2023-04-15T17:38:56.687Z,16.14
2023-04-15T17:41:23.585Z,16.12
2023-04-15T17:43:50.663Z,16.13
2023-04-15T17:46:19.403Z,16.08
2023-04-15T17:48:46.791Z,16.12
2023-04-15T17:51:13.772Z,16.10
2023-04-15T17:53:40.436Z,16.10
2023-04-15T17:56:07.175Z,16.07
2023-04-15T17:58:39.416Z,16.07
2023-04-15T18:01:06.905Z,16.08
2023-04-15T18:03:35.454Z,16.07
2023-04-15T18:06:02.440Z,16.09
2023-04-15T18:08:29.269Z,16.08
2023-04-15T18:10:56.582Z,16.06
2023-04-15T18:13:23.300Z,16.07
2023-04-15T18:15:51.514Z,16.07
2023-04-15T18:18:18.372Z,16.05
2023-04-15T18:20:45.088Z,16.04
2023-04-15T18:23:11.932Z,16.04
2023-04-15T18:25:38.667Z,16.03
2023-04-15T18:28:06.046Z,16.04
2023-04-15T18:30:32.765Z,16.08
2023-04-15T18:32:59.606Z,16.08
2023-04-15T18:35:26.484Z,16.04
2023-04-15T18:37:59.233Z,16.04
2023-04-15T18:40:26.053Z,16.05
2023-04-15T18:42:53.157Z,16.01
2023-04-15T18:45:19.887Z,16.06
2023-04-15T18:47:46.619Z,16.04
2023-04-15T18:50:13.463Z,16.06
2023-04-15T18:52:40.253Z,16.05
2023-04-15T18:55:07.639Z,16.06
2023-04-15T18:57:35.793Z,16.05
2023-04-15T19:00:04.622Z,16.04
2023-04-15T19:02:31.779Z,16.04
2023-04-15T19:04:58.644Z,16.06
2023-04-15T19:07:25.591Z,16.06
2023-04-15T19:09:53.437Z,16.06
2023-04-15T19:12:20.220Z,16.07
2023-04-15T19:14:47.073Z,16.05
2023-04-15T19:17:13.996Z,16.05
2023-04-15T19:19:40.861Z,16.06
2023-04-15T19:22:08.986Z,16.06
2023-04-15T19:24:36.769Z,16.06
2023-04-15T19:27:03.554Z,16.05
2023-04-15T19:29:30.254Z,16.06
2023-04-15T19:31:57.344Z,16.05
2023-04-15T19:34:25.232Z,16.06
2023-04-15T19:36:52.015Z,16.06
2023-04-15T19:39:18.976Z,16.06
2023-04-15T19:41:46.077Z,16.07
2023-04-15T19:44:13.797Z,16.05
2023-04-15T19:46:42.139Z,16.04
2023-04-15T19:49:08.852Z,16.06
2023-04-15T19:51:35.633Z,16.06
2023-04-15T19:54:02.483Z,16.07
2023-04-15T19:56:30.397Z,16.07
2023-04-15T19:58:59.895Z,16.06
2023-04-15T20:01:27.670Z,16.03
2023-04-15T20:03:54.873Z,16.05
2023-04-15T20:06:22.134Z,16.03
2023-04-15T20:08:48.864Z,16.02
2023-04-15T20:11:15.854Z,16.05
2023-04-15T20:13:42.654Z,16.05
2023-04-15T20:16:09.685Z,16.05
2023-04-15T20:18:36.569Z,16.04
2023-04-15T20:21:03.341Z,16.04
2023-04-15T20:23:30.144Z,16.04
2023-04-15T20:25:56.867Z,16.03
2023-04-15T20:28:26.311Z,15.99
2023-04-15T20:30:53.956Z,16.02
2023-04-15T20:33:22.567Z,16.02
2023-04-15T20:35:49.410Z,16.01
2023-04-15T20:38:16.659Z,16.01
2023-04-15T20:40:43.813Z,16.02
2023-04-15T20:43:10.575Z,16.03
2023-04-15T20:45:37.529Z,15.97
2023-04-15T20:48:04.848Z,15.99
2023-04-15T20:50:31.988Z,15.99
2023-04-15T20:52:58.746Z,15.96
2023-04-15T20:55:25.796Z,16.00
2023-04-15T20:57:52.645Z,15.99
2023-04-15T21:00:19.385Z,15.97
2023-04-15T21:02:46.221Z,15.95
2023-04-15T21:05:13.120Z,15.94
2023-04-15T21:07:41.136Z,15.94
2023-04-15T21:10:08.103Z,15.95
2023-04-15T21:12:34.833Z,15.98
2023-04-15T21:15:01.950Z,15.97
2023-04-15T21:17:28.724Z,15.94
2023-04-15T21:19:55.532Z,15.98
2023-04-15T21:22:22.284Z,15.97
2023-04-15T21:24:49.035Z,15.97
2023-04-15T21:27:15.989Z,15.96
2023-04-15T21:29:42.720Z,15.96
2023-04-15T21:32:09.515Z,15.97
2023-04-15T21:34:36.309Z,15.98
2023-04-15T21:37:03.268Z,15.97
2023-04-15T21:39:30.045Z,15.97
2023-04-15T21:41:58.086Z,15.96
2023-04-15T21:44:25.112Z,15.97
2023-04-15T21:46:52.152Z,15.97
2023-04-15T21:49:20.466Z,15.98
2023-04-15T21:51:48.141Z,15.95
2023-04-15T21:54:14.917Z,15.96
2023-04-15T21:56:42.668Z,15.98
2023-04-15T21:59:09.490Z,16.01
2023-04-15T22:01:36.413Z,16.00
2023-04-15T22:04:03.511Z,16.00
2023-04-15T22:06:30.330Z,16.00
2023-04-15T22:08:57.981Z,16.01
2023-04-15T22:11:29.716Z,16.01
2023-04-15T22:13:57.672Z,16.01
2023-04-15T22:16:28.553Z,16.01
2023-04-15T22:18:55.878Z,16.03
2023-04-15T22:21:23.093Z,16.02
2023-04-15T22:23:50.074Z,16.03
2023-04-15T22:26:16.949Z,16.01
2023-04-15T22:28:43.673Z,16.01
2023-04-15T22:31:10.718Z,16.02
2023-04-15T22:33:37.574Z,16.01
2023-04-15T22:36:04.426Z,16.00
2023-04-15T22:38:31.288Z,15.99
2023-04-15T22:40:58.575Z,15.99
2023-04-15T22:43:26.104Z,15.99
2023-04-15T22:45:55.785Z,15.99
2023-04-15T22:48:22.894Z,15.99
2023-04-15T22:50:50.158Z,15.98
2023-04-15T22:53:17.989Z,16.00
2023-04-15T22:55:46.738Z,15.99
2023-04-15T22:58:13.928Z,16.00
2023-04-15T23:00:40.785Z,16.01
2023-04-15T23:03:07.632Z,15.99
2023-04-15T23:05:34.717Z,16.00
2023-04-15T23:08:01.615Z,15.99
2023-04-15T23:10:28.774Z,15.99
2023-04-15T23:12:55.486Z,15.99
2023-04-15T23:15:22.513Z,15.98
2023-04-15T23:17:49.366Z,16.00
2023-04-15T23:20:16.940Z,15.96
2023-04-15T23:22:43.680Z,15.99
2023-04-15T23:25:10.496Z,16.00
2023-04-15T23:27:37.368Z,15.99
2023-04-15T23:30:04.518Z,15.94
2023-04-15T23:32:31.353Z,15.94
2023-04-15T23:34:58.153Z,15.96
2023-04-15T23:37:24.882Z,15.96
2023-04-15T23:39:51.588Z,15.98
2023-04-15T23:42:18.287Z,15.96
2023-04-15T23:44:45.150Z,15.94
2023-04-15T23:47:11.871Z,15.97
2023-04-15T23:49:41.018Z,15.94
2023-04-15T23:52:08.099Z,15.97
2023-04-15T23:54:34.981Z,15.98
2023-04-15T23:57:04.683Z,15.99
2023-04-15T23:59:31.759Z,15.97
